createdAt,value
2023-02-11T00:00:41.009Z,31.10
2023-02-11T00:03:09.268Z,31.13
2023-02-11T00:05:37.096Z,32.37
2023-02-11T00:08:05.093Z,29.33
2023-02-11T00:10:32.865Z,31.00
2023-02-11T00:13:00.645Z,31.67
2023-02-11T00:15:29.822Z,34.43
2023-02-11T00:17:57.608Z,29.53
2023-02-11T00:20:25.394Z,33.83
2023-02-11T00:22:53.179Z,29.63
2023-02-11T00:25:21.165Z,27.63
2023-02-11T00:27:48.969Z,31.37
2023-02-11T00:30:16.756Z,33.03
2023-02-11T00:32:45.916Z,32.13
2023-02-11T00:35:13.767Z,33.63
2023-02-11T00:37:41.699Z,31.37
2023-02-11T00:40:13.160Z,31.67
2023-02-11T00:42:41.017Z,32.13
2023-02-11T00:45:09.981Z,28.73
2023-02-11T00:47:37.974Z,30.80
2023-02-11T00:50:08.294Z,32.43
2023-02-11T00:52:36.365Z,34.93
2023-02-11T00:55:04.387Z,29.13
2023-02-11T00:57:33.522Z,28.40
2023-02-11T01:00:01.218Z,29.97
2023-02-11T01:02:28.975Z,28.67
2023-02-11T01:04:56.805Z,29.30
2023-02-11T01:07:25.993Z,28.37
2023-02-11T01:09:53.809Z,29.83
2023-02-11T01:12:21.755Z,44.03
2023-02-11T01:14:49.754Z,38.53
2023-02-11T01:17:19.602Z,37.00
2023-02-11T01:19:51.015Z,33.43
2023-02-11T01:22:19.189Z,32.30
2023-02-11T01:24:49.660Z,29.13
2023-02-11T01:27:17.393Z,30.37
2023-02-11T01:29:45.769Z,33.17
2023-02-11T01:32:14.282Z,31.73
2023-02-11T01:34:42.102Z,25.30
2023-02-11T01:37:09.929Z,31.90
2023-02-11T01:39:37.760Z,30.17
2023-02-11T01:42:08.132Z,32.13
2023-02-11T01:44:38.067Z,29.03
2023-02-11T01:47:06.464Z,34.63
2023-02-11T01:49:37.524Z,26.37
2023-02-11T01:52:11.123Z,30.37
2023-02-11T01:55:01.117Z,29.43
2023-02-11T01:57:34.805Z,29.30
2023-02-11T02:00:11.258Z,28.90
2023-02-11T02:02:51.429Z,34.03
2023-02-11T02:05:25.813Z,31.30
2023-02-11T02:08:01.378Z,29.43
2023-02-11T02:10:30.131Z,33.03
2023-02-11T02:12:59.425Z,31.53
2023-02-11T02:15:30.601Z,33.17
2023-02-11T02:18:02.324Z,29.97
2023-02-11T02:21:14.649Z,31.90
2023-02-11T02:24:21.501Z,32.90
2023-02-11T02:27:14.314Z,30.33
2023-02-11T02:30:16.819Z,27.43
2023-02-11T02:33:20.538Z,32.60
2023-02-11T02:35:59.495Z,33.00
2023-02-11T02:38:32.974Z,32.10
2023-02-11T02:41:05.161Z,34.40
2023-02-11T02:43:34.870Z,32.00
2023-02-11T02:46:19.654Z,31.53
2023-02-11T02:48:51.049Z,30.33
2023-02-11T02:51:36.980Z,30.47
2023-02-11T02:54:30.521Z,31.90
2023-02-11T02:57:10.961Z,30.20
2023-02-11T02:59:49.808Z,33.63
2023-02-11T03:02:25.325Z,35.63
2023-02-11T03:05:02.639Z,32.97
2023-02-11T03:07:38.736Z,33.87
2023-02-11T03:10:12.116Z,33.17
2023-02-11T03:12:41.977Z,32.77
2023-02-11T03:15:13.012Z,34.97
2023-02-11T03:17:43.724Z,33.17
2023-02-11T03:20:16.911Z,29.73
2023-02-11T03:22:51.880Z,33.97
2023-02-11T03:25:22.138Z,31.37
2023-02-11T03:27:55.212Z,30.10
2023-02-11T03:30:29.468Z,29.80
2023-02-11T03:33:01.401Z,31.27
2023-02-11T03:35:37.650Z,32.23
2023-02-11T03:38:08.500Z,33.07
2023-02-11T03:40:39.254Z,32.67
2023-02-11T03:43:11.066Z,32.33
2023-02-11T03:45:40.108Z,32.93
2023-02-11T03:48:21.409Z,30.30
2023-02-11T03:50:52.737Z,31.70
2023-02-11T03:53:23.327Z,34.40
2023-02-11T03:55:53.820Z,31.63
2023-02-11T03:58:21.947Z,31.40
2023-02-11T04:00:49.853Z,33.53
2023-02-11T04:03:17.754Z,28.17
2023-02-11T04:05:45.944Z,30.20
2023-02-11T04:08:15.130Z,34.00
2023-02-11T04:10:42.926Z,30.47
2023-02-11T04:13:10.690Z,31.80
2023-02-11T04:15:38.598Z,33.57
2023-02-11T04:18:06.703Z,30.37
2023-02-11T04:20:34.512Z,34.43
2023-02-11T04:23:02.307Z,28.87
2023-02-11T04:25:31.606Z,29.87
2023-02-11T04:27:59.410Z,27.20
2023-02-11T04:30:27.281Z,33.13
2023-02-11T04:32:55.226Z,29.57
2023-02-11T04:35:23.051Z,34.33
2023-02-11T04:37:50.854Z,31.73
2023-02-11T04:40:18.804Z,28.87
2023-02-11T04:42:48.070Z,32.80
2023-02-11T04:45:16.268Z,31.33
2023-02-11T04:47:44.026Z,31.80
2023-02-11T04:50:11.862Z,29.17
2023-02-11T04:52:39.707Z,28.27
2023-02-11T04:55:08.065Z,28.57
2023-02-11T04:57:35.813Z,28.57
2023-02-11T05:00:05.128Z,32.00
2023-02-11T05:02:33.203Z,33.57
2023-02-11T05:05:00.937Z,32.70
2023-02-11T05:07:29.347Z,30.30
2023-02-11T05:09:57.106Z,32.23
2023-02-11T05:12:24.944Z,30.83
2023-02-11T05:14:52.707Z,36.30
2023-02-11T05:17:21.793Z,31.77
2023-02-11T05:19:49.572Z,31.83
2023-02-11T05:22:17.344Z,31.37
2023-02-11T05:24:45.173Z,35.63
2023-02-11T05:27:12.942Z,31.93
2023-02-11T05:29:40.904Z,31.33
2023-02-11T05:32:09.030Z,32.97
2023-02-11T05:34:38.186Z,34.17
2023-02-11T05:37:06.111Z,31.97
2023-02-11T05:39:33.917Z,28.83
2023-02-11T05:42:01.682Z,30.80
2023-02-11T05:44:29.443Z,33.40
2023-02-11T05:46:57.248Z,32.53
2023-02-11T05:49:25.119Z,31.90
2023-02-11T05:51:54.287Z,31.70
2023-02-11T05:54:22.339Z,28.83
2023-02-11T05:56:50.135Z,32.50
2023-02-11T05:59:17.935Z,36.90
2023-02-11T06:01:45.868Z,32.50
2023-02-11T06:04:13.687Z,29.07
2023-02-11T06:06:41.521Z,31.87
2023-02-11T06:09:11.784Z,30.33
2023-02-11T06:11:39.706Z,27.03
2023-02-11T06:14:07.546Z,32.07
2023-02-11T06:16:35.320Z,32.03
2023-02-11T06:19:03.393Z,28.43
2023-02-11T06:21:42.985Z,28.70
2023-02-11T06:24:13.140Z,27.80
2023-02-11T06:26:41.128Z,38.03
2023-02-11T06:29:09.182Z,35.00
2023-02-11T06:31:38.826Z,32.37
2023-02-11T06:34:06.954Z,31.27
2023-02-11T06:36:34.780Z,31.23
2023-02-11T06:39:02.580Z,28.53
2023-02-11T06:41:31.954Z,26.57
2023-02-11T06:43:59.863Z,26.23
2023-02-11T06:46:27.628Z,27.83
2023-02-11T06:48:55.384Z,25.30
2023-02-11T06:51:23.212Z,24.13
2023-02-11T06:53:51.029Z,29.43
2023-02-11T06:56:20.800Z,28.57
2023-02-11T06:58:54.558Z,31.13
2023-02-11T07:01:22.946Z,29.20
2023-02-11T07:03:51.791Z,29.53
2023-02-11T07:06:22.288Z,28.33
2023-02-11T07:08:50.521Z,33.00
2023-02-11T07:11:20.502Z,29.57
2023-02-11T07:13:49.622Z,30.10
2023-02-11T07:16:18.644Z,31.83
2023-02-11T07:18:47.988Z,32.07
2023-02-11T07:21:18.294Z,31.90
2023-02-11T07:23:46.302Z,30.57
2023-02-11T07:26:16.880Z,27.63
2023-02-11T07:28:44.976Z,27.70
2023-02-11T07:31:16.143Z,26.07
2023-02-11T07:33:45.770Z,25.77
2023-02-11T07:36:14.822Z,27.67
2023-02-11T07:38:42.976Z,29.93
2023-02-11T07:41:13.366Z,27.90
2023-02-11T07:43:41.882Z,29.20
2023-02-11T07:46:14.847Z,31.83
2023-02-11T07:48:44.065Z,28.60
2023-02-11T07:51:14.411Z,33.43
2023-02-11T07:53:42.584Z,28.70
2023-02-11T07:56:11.853Z,28.40
2023-02-11T07:58:42.053Z,27.50
2023-02-11T08:01:12.463Z,23.87
2023-02-11T08:03:41.940Z,26.70
2023-02-11T08:06:13.193Z,44.87
2023-02-11T08:08:41.587Z,33.10
2023-02-11T08:11:10.771Z,28.70
2023-02-11T08:13:39.068Z,27.30
2023-02-11T08:16:08.327Z,28.67
2023-02-11T08:18:36.869Z,29.27
2023-02-11T08:21:06.777Z,25.43
2023-02-11T08:23:37.415Z,27.57
2023-02-11T08:26:05.702Z,24.07
2023-02-11T08:28:37.919Z,26.77
2023-02-11T08:31:10.413Z,22.73
2023-02-11T08:33:40.376Z,22.10
2023-02-11T08:36:10.572Z,22.60
2023-02-11T08:38:39.900Z,19.73
2023-02-11T08:41:09.479Z,25.63
2023-02-11T08:43:41.570Z,23.70
2023-02-11T08:46:10.207Z,24.43
2023-02-11T08:48:37.991Z,23.17
2023-02-11T08:51:09.354Z,23.63
2023-02-11T08:53:37.412Z,21.60
2023-02-11T08:56:07.203Z,19.47
2023-02-11T08:58:35.396Z,21.47
2023-02-11T09:01:03.298Z,19.43
2023-02-11T09:03:32.001Z,21.83
2023-02-11T09:05:59.719Z,21.17
2023-02-11T09:08:27.583Z,23.13
2023-02-11T09:10:57.644Z,22.60
2023-02-11T09:13:26.817Z,21.80
2023-02-11T09:15:54.563Z,24.77
2023-02-11T09:18:22.433Z,21.80
2023-02-11T09:20:50.607Z,22.60
2023-02-11T09:23:19.094Z,24.03
2023-02-11T09:25:46.846Z,25.13
2023-02-11T09:28:14.641Z,22.87
2023-02-11T09:30:43.889Z,24.83
2023-02-11T09:33:11.741Z,23.10
2023-02-11T09:35:39.535Z,24.23
2023-02-11T09:38:07.286Z,24.53
2023-02-11T09:40:35.202Z,24.60
2023-02-11T09:43:09.343Z,26.83
2023-02-11T09:45:37.150Z,27.33
2023-02-11T09:48:15.549Z,25.97
2023-02-11T09:50:47.696Z,24.50
2023-02-11T09:53:21.276Z,23.03
2023-02-11T09:55:55.643Z,29.70
2023-02-11T09:58:27.881Z,24.37
2023-02-11T10:01:04.102Z,25.23
2023-02-11T10:03:51.275Z,57.00
2023-02-11T10:06:37.588Z,26.07
2023-02-11T10:09:19.103Z,20.47
2023-02-11T10:11:54.312Z,21.80
2023-02-11T10:14:45.041Z,19.83
2023-02-11T10:17:23.910Z,22.90
2023-02-11T10:20:09.254Z,21.40
2023-02-11T10:22:42.532Z,20.70
2023-02-11T10:25:18.851Z,19.93
2023-02-11T10:27:47.045Z,22.40
2023-02-11T10:30:24.605Z,21.03
2023-02-11T10:32:58.674Z,22.83
2023-02-11T10:35:28.255Z,19.87
2023-02-11T10:37:56.822Z,18.47
2023-02-11T10:40:26.086Z,22.07
2023-02-11T10:42:56.339Z,22.30
2023-02-11T10:45:31.478Z,23.90
2023-02-11T10:48:00.183Z,17.77
2023-02-11T10:50:33.488Z,20.33
2023-02-11T10:53:14.485Z,18.93
2023-02-11T10:55:58.390Z,20.77
2023-02-11T10:58:29.319Z,20.70
2023-02-11T11:01:01.346Z,21.57
2023-02-11T11:03:33.120Z,19.47
2023-02-11T11:06:05.221Z,19.70
2023-02-11T11:08:42.764Z,18.03
2023-02-11T11:11:12.273Z,20.37
2023-02-11T11:13:41.777Z,17.83
2023-02-11T11:16:19.245Z,17.60
2023-02-11T11:18:48.826Z,17.63
2023-02-11T11:21:21.124Z,16.77
2023-02-11T11:23:52.098Z,16.13
2023-02-11T11:26:20.189Z,16.40
2023-02-11T11:28:58.789Z,14.43
2023-02-11T11:31:31.082Z,13.63
2023-02-11T11:34:01.758Z,17.13
2023-02-11T11:36:37.894Z,16.50
2023-02-11T11:39:20.965Z,17.00
2023-02-11T11:41:54.600Z,19.83
2023-02-11T11:44:31.994Z,16.83
2023-02-11T11:47:23.023Z,16.20
2023-02-11T11:49:57.698Z,17.83
2023-02-11T11:52:37.876Z,15.27
2023-02-11T11:55:12.910Z,14.20
2023-02-11T11:57:41.085Z,14.53
2023-02-11T12:00:16.756Z,14.67
2023-02-11T12:03:25.146Z,13.63
2023-02-11T12:06:07.966Z,14.60
2023-02-11T12:08:45.627Z,14.17
2023-02-11T12:11:22.191Z,12.30
2023-02-11T12:14:11.126Z,10.73
2023-02-11T12:16:47.918Z,12.47
2023-02-11T12:19:49.249Z,12.83
2023-02-11T12:22:27.893Z,12.53
2023-02-11T12:25:10.775Z,11.40
2023-02-11T12:27:49.812Z,10.73
2023-02-11T12:30:35.295Z,11.60
2023-02-11T12:33:11.657Z,15.27
2023-02-11T12:35:48.644Z,11.50
2023-02-11T12:38:32.914Z,16.53
2023-02-11T12:41:16.150Z,19.03
2023-02-11T12:43:45.104Z,12.47
2023-02-11T12:46:32.227Z,12.60
2023-02-11T12:49:31.475Z,9.90
2023-02-11T12:52:16.342Z,13.10
2023-02-11T12:54:50.111Z,10.97
2023-02-11T12:57:24.248Z,13.60
2023-02-11T12:59:58.965Z,10.70
2023-02-11T13:02:35.876Z,10.53
2023-02-11T13:05:14.466Z,11.00
2023-02-11T13:07:46.104Z,11.80
2023-02-11T13:10:26.086Z,9.40
2023-02-11T13:13:14.337Z,9.63
2023-02-11T13:15:44.749Z,12.03
2023-02-11T13:18:24.269Z,11.87
2023-02-11T13:20:59.369Z,10.30
2023-02-11T13:23:38.348Z,9.90
2023-02-11T13:26:15.480Z,10.50
2023-02-11T13:28:50.345Z,11.33
2023-02-11T13:31:20.536Z,13.67
2023-02-11T13:33:49.794Z,14.07
2023-02-11T13:36:20.670Z,13.07
2023-02-11T13:39:21.190Z,13.17
2023-02-11T13:41:52.549Z,12.10
2023-02-11T13:44:37.922Z,10.90
2023-02-11T13:59:00.755Z,11.33
2023-02-11T14:11:06.189Z,13.83
2023-02-11T14:14:20.072Z,12.77
2023-02-11T14:29:09.560Z,13.23
2023-02-11T14:31:43.832Z,14.63
2023-02-11T14:34:34.581Z,13.63
2023-02-11T14:37:15.658Z,13.30
2023-02-11T14:39:58.836Z,12.37
2023-02-11T14:42:30.871Z,14.03
2023-02-11T14:45:04.462Z,15.87
2023-02-11T14:47:42.288Z,13.33
2023-02-11T14:50:19.199Z,14.53
2023-02-11T14:52:47.892Z,13.33
2023-02-11T14:55:26.564Z,13.90
2023-02-11T14:58:12.617Z,13.63
2023-02-11T15:00:50.588Z,13.47
2023-02-11T15:03:37.302Z,12.80
2023-02-11T15:06:08.814Z,12.60
2023-02-11T15:08:38.737Z,11.33
2023-02-11T15:11:13.032Z,12.47
2023-02-11T15:13:47.331Z,17.17
2023-02-11T15:16:19.782Z,15.47
2023-02-11T15:18:52.428Z,13.50
2023-02-11T15:21:25.649Z,12.10
2023-02-11T15:23:58.585Z,13.07
2023-02-11T15:26:31.899Z,12.17
2023-02-11T15:29:04.197Z,13.57
2023-02-11T15:31:35.177Z,12.37
2023-02-11T15:34:09.808Z,13.97
2023-02-11T15:36:39.066Z,12.90
2023-02-11T15:39:29.822Z,13.60
2023-02-11T15:41:57.569Z,12.30
2023-02-11T15:44:30.053Z,14.73
2023-02-11T15:46:58.416Z,13.10
2023-02-11T15:49:28.084Z,15.37
2023-02-11T15:51:57.941Z,11.80
2023-02-11T15:54:29.414Z,14.50
2023-02-11T15:57:03.543Z,13.63
2023-02-11T15:59:37.848Z,14.07
2023-02-11T16:02:11.542Z,12.57
2023-02-11T16:04:43.260Z,14.63
2023-02-11T16:07:40.125Z,13.90
2023-02-11T16:10:18.799Z,13.13
2023-02-11T16:12:52.994Z,14.57
2023-02-11T16:15:47.976Z,14.10
2023-02-11T16:18:37.386Z,16.13
2023-02-11T16:21:20.515Z,14.97
2023-02-11T16:23:53.994Z,13.60
2023-02-11T16:26:35.215Z,13.57
2023-02-11T16:29:10.885Z,13.70
2023-02-11T16:31:45.151Z,14.37
2023-02-11T16:34:20.431Z,15.23
2023-02-11T16:36:57.851Z,13.47
2023-02-11T16:39:25.709Z,13.53
2023-02-11T16:41:55.932Z,13.90
2023-02-11T16:44:23.941Z,12.70
2023-02-11T16:46:53.040Z,15.60
2023-02-11T16:49:24.915Z,14.20
2023-02-11T16:51:57.314Z,12.83
2023-02-11T16:54:25.283Z,14.73
2023-02-11T16:56:53.022Z,13.23
2023-02-11T16:59:24.290Z,13.93
2023-02-11T17:02:02.265Z,16.33
2023-02-11T17:04:33.511Z,16.07
2023-02-11T17:07:07.451Z,14.97
2023-02-11T17:09:35.960Z,13.23
2023-02-11T17:12:06.385Z,13.43
2023-02-11T17:14:34.764Z,13.87
2023-02-11T17:17:05.620Z,12.97
2023-02-11T17:27:06.032Z,16.13
2023-02-11T17:29:36.394Z,14.87
2023-02-11T17:32:07.535Z,13.70
2023-02-11T17:34:36.433Z,14.73
2023-02-11T17:37:08.977Z,15.47
2023-02-11T17:39:37.078Z,14.77
2023-02-11T17:42:06.893Z,16.03
2023-02-11T17:44:42.611Z,15.30
2023-02-11T17:47:10.429Z,14.93
2023-02-11T17:49:38.434Z,13.30
2023-02-11T17:52:06.270Z,17.87
2023-02-11T17:54:34.579Z,17.80
2023-02-11T17:57:02.753Z,16.07
2023-02-11T17:59:36.272Z,16.30
2023-02-11T18:02:05.401Z,13.07
2023-02-11T18:04:33.378Z,13.30
2023-02-11T18:07:03.454Z,14.87
2023-02-11T18:09:31.439Z,14.07
2023-02-11T18:12:01.538Z,15.63
2023-02-11T18:14:31.145Z,14.80
2023-02-11T18:17:05.324Z,17.20
2023-02-11T18:19:35.900Z,18.57
2023-02-11T18:22:04.316Z,19.23
2023-02-11T18:24:36.739Z,21.00
2023-02-11T18:27:04.701Z,23.10
2023-02-11T18:29:41.111Z,22.00
2023-02-11T18:32:12.481Z,23.63
2023-02-11T18:34:42.016Z,22.73
2023-02-11T18:37:10.340Z,18.93
2023-02-11T18:39:38.369Z,17.47
2023-02-11T18:42:06.347Z,17.87
2023-02-11T18:44:37.604Z,17.00
2023-02-11T18:47:05.458Z,14.67
2023-02-11T18:49:36.161Z,16.20
2023-02-11T18:52:05.369Z,15.80
2023-02-11T18:54:34.857Z,15.43
2023-02-11T18:57:02.597Z,14.57
2023-02-11T18:59:33.471Z,12.70
2023-02-11T19:02:01.225Z,14.40
2023-02-11T19:04:29.030Z,13.00
2023-02-11T19:07:03.043Z,13.90
2023-02-11T19:09:31.146Z,12.37
2023-02-11T19:12:03.428Z,13.27
2023-02-11T19:14:39.849Z,15.57
2023-02-11T19:17:12.271Z,12.07
2023-02-11T19:23:38.489Z,13.03
2023-02-11T19:26:06.893Z,16.37
2023-02-11T19:28:37.058Z,17.67
2023-02-11T19:31:10.113Z,15.43
2023-02-11T19:33:38.111Z,14.53
2023-02-11T19:36:07.980Z,14.07
2023-02-11T19:38:37.482Z,15.87
2023-02-11T19:41:06.255Z,16.57
2023-02-11T19:43:34.220Z,15.70
2023-02-11T19:46:04.093Z,18.73
2023-02-11T19:48:32.030Z,17.37
2023-02-11T19:51:00.312Z,14.73
2023-02-11T19:53:28.272Z,23.77
2023-02-11T19:56:03.816Z,18.10
2023-02-11T19:58:32.251Z,17.90
2023-02-11T20:01:06.939Z,17.63
2023-02-11T20:03:35.291Z,16.63
2023-02-11T20:06:06.671Z,17.60
2023-02-11T20:08:34.824Z,17.43
2023-02-11T20:11:08.771Z,17.70
2023-02-11T20:13:37.800Z,18.77
2023-02-11T20:16:08.127Z,15.53
2023-02-11T20:18:37.378Z,15.73
2023-02-11T20:21:09.251Z,15.20
2023-02-11T20:23:38.278Z,20.87
2023-02-11T20:26:10.302Z,16.20
2023-02-11T20:28:38.548Z,17.63
2023-02-11T20:31:16.633Z,15.80
2023-02-11T20:33:52.288Z,18.53
